createdAt,value
2024-03-28T00:01:23.481Z,51.79
2024-03-28T00:02:23.542Z,51.79
2024-03-28T00:03:23.528Z,51.59
2024-03-28T00:04:23.534Z,51.68
2024-03-28T00:05:23.606Z,51.79
2024-03-28T00:06:23.558Z,51.79
2024-03-28T00:07:23.511Z,51.68
2024-03-28T00:08:23.511Z,51.68
2024-03-28T00:09:23.520Z,51.79
2024-03-28T00:10:23.568Z,51.79
2024-03-28T00:11:23.532Z,51.79
2024-03-28T00:13:23.555Z,51.79
2024-03-28T00:14:23.536Z,51.79
2024-03-28T00:15:23.560Z,51.79
2024-03-28T00:16:23.545Z,51.79
2024-03-28T00:17:23.582Z,51.89
2024-03-28T00:18:23.571Z,51.79
2024-03-28T00:19:30.374Z,51.79
2024-03-28T00:20:23.609Z,51.79
2024-03-28T00:21:23.642Z,51.79
2024-03-28T00:22:23.655Z,51.79
2024-03-28T00:23:23.659Z,51.68
2024-03-28T00:24:23.690Z,51.79
2024-03-28T00:25:23.670Z,51.79
2024-03-28T00:26:23.755Z,51.79
2024-03-28T00:27:24.728Z,51.79
2024-03-28T00:28:23.711Z,51.79
2024-03-28T00:29:23.761Z,51.79
2024-03-28T00:30:23.784Z,51.79
2024-03-28T00:31:23.813Z,51.79
2024-03-28T00:33:23.803Z,51.79
2024-03-28T00:34:23.811Z,51.79
2024-03-28T00:35:23.810Z,51.79
2024-03-28T00:36:23.818Z,51.89
2024-03-28T00:37:23.847Z,51.89
2024-03-28T00:38:23.863Z,51.89
2024-03-28T00:40:23.871Z,51.79
2024-03-28T00:42:23.889Z,51.79
2024-03-28T00:43:23.897Z,51.79
2024-03-28T00:44:23.900Z,51.79
2024-03-28T00:45:23.911Z,51.79
2024-03-28T00:46:23.919Z,51.79
2024-03-28T00:47:23.949Z,51.79
2024-03-28T00:48:23.997Z,51.79
2024-03-28T00:49:24.014Z,51.91
2024-03-28T00:50:24.010Z,51.89
2024-03-28T00:51:24.027Z,51.79
2024-03-28T00:52:24.070Z,51.91
2024-03-28T00:53:24.071Z,51.91
2024-03-28T00:54:24.082Z,51.89
2024-03-28T00:55:24.052Z,51.79
2024-03-28T00:57:24.102Z,51.91
2024-03-28T00:58:24.127Z,51.91
2024-03-28T00:59:24.114Z,51.91
2024-03-28T01:00:24.188Z,51.89
2024-03-28T01:01:24.191Z,51.91
2024-03-28T01:02:24.204Z,51.89
2024-03-28T01:03:24.187Z,51.89
2024-03-28T01:04:24.208Z,51.79
2024-03-28T01:05:24.217Z,51.79
2024-03-28T01:06:24.238Z,52.01
2024-03-28T01:07:24.283Z,51.91
2024-03-28T01:08:24.280Z,52.01
2024-03-28T01:09:24.345Z,51.89
2024-03-28T01:10:24.348Z,51.91
2024-03-28T01:11:24.359Z,51.91
2024-03-28T01:12:24.348Z,51.89
2024-03-28T01:13:24.383Z,51.91
2024-03-28T01:14:24.390Z,51.91
2024-03-28T01:15:24.390Z,51.89
2024-03-28T01:16:24.412Z,51.91
2024-03-28T01:17:24.399Z,52.01
2024-03-28T01:18:24.442Z,52.01
2024-03-28T01:19:24.419Z,51.91
2024-03-28T01:20:24.427Z,51.91
2024-03-28T01:21:24.434Z,52.01
2024-03-28T01:22:24.473Z,51.89
2024-03-28T01:24:24.484Z,51.89
2024-03-28T01:25:24.514Z,51.91
2024-03-28T01:26:24.496Z,51.91
2024-03-28T01:27:24.512Z,51.91
2024-03-28T01:28:24.548Z,51.91
2024-03-28T01:29:24.537Z,52.01
2024-03-28T01:30:24.563Z,52.01
2024-03-28T01:31:24.588Z,52.01
2024-03-28T01:32:24.623Z,52.01
2024-03-28T01:33:24.631Z,52.01
2024-03-28T01:34:24.620Z,52.01
2024-03-28T01:35:24.632Z,52.01
2024-03-28T01:36:24.635Z,52.01
2024-03-28T01:37:24.627Z,52.01
2024-03-28T01:38:24.671Z,52.01
2024-03-28T01:39:24.602Z,52.01
2024-03-28T01:40:24.621Z,52.01
2024-03-28T01:41:24.680Z,52.01
2024-03-28T01:42:24.673Z,52.11
2024-03-28T01:43:24.663Z,52.11
2024-03-28T01:44:24.704Z,52.11
2024-03-28T01:45:24.732Z,52.11
2024-03-28T01:46:35.728Z,52.11
2024-03-28T01:47:41.958Z,52.11
2024-03-28T01:48:24.704Z,52.11
2024-03-28T01:49:24.721Z,52.11
2024-03-28T01:50:24.765Z,52.11
2024-03-28T01:51:24.735Z,52.01
2024-03-28T01:52:24.747Z,52.01
2024-03-28T01:53:24.752Z,52.01
2024-03-28T01:54:24.797Z,52.01
2024-03-28T01:55:25.785Z,52.01
2024-03-28T01:56:24.834Z,52.01
2024-03-28T01:57:24.774Z,52.01
2024-03-28T01:58:24.788Z,52.11
2024-03-28T01:59:24.827Z,52.11
2024-03-28T02:00:24.848Z,52.01
2024-03-28T02:01:24.809Z,52.11
2024-03-28T02:02:24.826Z,52.11
2024-03-28T02:03:24.833Z,52.01
2024-03-28T02:04:24.864Z,52.11
2024-03-28T02:06:24.862Z,52.01
2024-03-28T02:07:24.909Z,52.01
2024-03-28T02:08:24.888Z,52.11
2024-03-28T02:09:24.896Z,52.01
2024-03-28T02:10:24.911Z,52.01
2024-03-28T02:11:24.929Z,52.11
2024-03-28T02:12:24.927Z,52.01
2024-03-28T02:13:24.932Z,52.01
2024-03-28T02:14:24.986Z,52.01
2024-03-28T02:15:25.042Z,52.01
2024-03-28T02:16:25.006Z,52.01
2024-03-28T02:17:25.039Z,52.11
2024-03-28T02:18:25.069Z,52.11
2024-03-28T02:19:25.046Z,52.11
2024-03-28T02:20:25.263Z,52.11
2024-03-28T02:21:25.145Z,52.11
2024-03-28T02:22:25.120Z,52.11
2024-03-28T02:23:25.165Z,52.11
2024-03-28T02:24:25.167Z,52.11
2024-03-28T02:25:25.181Z,52.11
2024-03-28T02:26:25.226Z,52.11
2024-03-28T02:27:25.204Z,52.11
2024-03-28T02:28:25.178Z,52.11
2024-03-28T02:29:25.205Z,52.22
2024-03-28T02:30:25.193Z,52.22
2024-03-28T02:31:25.227Z,52.22
2024-03-28T02:32:25.209Z,52.22
2024-03-28T02:33:25.234Z,52.22
2024-03-28T02:34:25.244Z,52.31
2024-03-28T02:35:25.252Z,52.22
2024-03-28T02:36:25.270Z,52.11
2024-03-28T02:37:25.299Z,52.11
2024-03-28T02:38:25.314Z,52.11
2024-03-28T02:39:25.330Z,52.11
2024-03-28T02:40:25.377Z,52.11
2024-03-28T02:41:25.400Z,52.11
2024-03-28T02:42:25.399Z,52.22
2024-03-28T02:43:25.364Z,52.22
2024-03-28T02:44:25.408Z,52.22
2024-03-28T02:45:25.421Z,52.11
2024-03-28T02:46:25.441Z,52.11
2024-03-28T02:47:25.479Z,52.11
2024-03-28T02:48:25.484Z,52.11
2024-03-28T02:49:25.468Z,52.11
2024-03-28T02:50:25.490Z,52.11
2024-03-28T02:52:25.518Z,52.11
2024-03-28T02:53:25.485Z,52.22
2024-03-28T02:54:25.517Z,52.11
2024-03-28T02:55:25.506Z,52.22
2024-03-28T02:56:25.510Z,52.22
2024-03-28T02:57:25.544Z,52.11
2024-03-28T02:58:25.523Z,52.11
2024-03-28T02:59:25.563Z,52.11
2024-03-28T03:00:25.567Z,52.11
2024-03-28T03:01:25.576Z,52.11
2024-03-28T03:02:25.622Z,52.11
2024-03-28T03:03:25.625Z,52.22
2024-03-28T03:04:25.631Z,52.22
2024-03-28T03:05:25.664Z,52.11
2024-03-28T03:06:25.657Z,52.11
2024-03-28T03:07:25.675Z,52.22
2024-03-28T03:08:25.699Z,52.22
2024-03-28T03:09:25.683Z,52.22
2024-03-28T03:10:25.690Z,52.22
2024-03-28T03:11:25.702Z,52.22
2024-03-28T03:12:25.706Z,52.22
2024-03-28T03:13:25.761Z,52.22
2024-03-28T03:14:25.758Z,52.22
2024-03-28T03:15:25.775Z,52.22
2024-03-28T03:16:25.819Z,52.31
2024-03-28T03:17:25.794Z,52.31
2024-03-28T03:18:27.842Z,52.31
2024-03-28T03:19:25.845Z,52.44
2024-03-28T03:20:25.854Z,52.44
2024-03-28T03:21:25.856Z,52.44
2024-03-28T03:22:25.868Z,52.34
2024-03-28T03:23:25.876Z,52.44
2024-03-28T03:24:25.893Z,52.34
2024-03-28T03:25:25.936Z,52.34
2024-03-28T03:26:25.903Z,52.31
2024-03-28T03:27:25.905Z,52.34
2024-03-28T03:28:25.920Z,52.44
2024-03-28T03:29:25.932Z,52.31
2024-03-28T03:30:25.947Z,52.31
2024-03-28T03:31:25.942Z,52.34
2024-03-28T03:32:25.977Z,52.44
2024-03-28T03:33:26.007Z,52.44
2024-03-28T03:34:25.976Z,52.44
2024-03-28T03:35:25.985Z,52.44
2024-03-28T03:36:26.026Z,52.34
2024-03-28T03:37:25.994Z,52.44
2024-03-28T03:38:26.035Z,52.44
2024-03-28T03:39:26.043Z,52.44
2024-03-28T03:40:26.011Z,52.44
2024-03-28T03:41:26.017Z,52.44
2024-03-28T03:42:26.038Z,52.44
2024-03-28T03:43:26.019Z,52.44
2024-03-28T03:44:26.032Z,52.44
2024-03-28T03:45:26.014Z,52.44
2024-03-28T03:46:26.027Z,52.44
2024-03-28T03:47:26.029Z,52.44
2024-03-28T03:48:26.060Z,52.44
2024-03-28T03:49:26.073Z,52.44
2024-03-28T03:50:26.051Z,52.54
2024-03-28T03:51:26.057Z,52.54
2024-03-28T03:52:26.086Z,52.44
2024-03-28T03:53:26.175Z,52.54
2024-03-28T03:54:26.142Z,52.54
2024-03-28T03:55:26.120Z,52.54
2024-03-28T03:56:26.197Z,52.54
2024-03-28T03:57:26.170Z,52.44
2024-03-28T03:58:26.233Z,52.44
2024-03-28T03:59:26.215Z,52.54
2024-03-28T04:00:26.217Z,52.54
2024-03-28T04:01:26.206Z,52.54
2024-03-28T04:02:26.200Z,52.54
2024-03-28T04:03:26.241Z,52.54
2024-03-28T04:04:26.255Z,52.54
2024-03-28T04:05:26.279Z,52.54
2024-03-28T04:06:26.261Z,52.64
2024-03-28T04:07:26.276Z,52.54
2024-03-28T04:08:26.281Z,52.54
2024-03-28T04:09:26.286Z,52.54
2024-03-28T04:10:26.331Z,52.54
2024-03-28T04:11:26.365Z,52.54
2024-03-28T04:12:26.329Z,52.54
2024-03-28T04:13:26.333Z,52.64
2024-03-28T04:14:26.344Z,52.64
2024-03-28T04:15:26.391Z,52.54
2024-03-28T04:16:26.456Z,52.64
2024-03-28T04:17:26.444Z,52.74
2024-03-28T04:18:26.422Z,52.74
2024-03-28T04:19:26.451Z,52.74
2024-03-28T04:20:26.456Z,52.74
2024-03-28T04:21:26.460Z,52.64
2024-03-28T04:22:26.461Z,52.64
2024-03-28T04:23:26.491Z,52.74
2024-03-28T04:24:26.505Z,52.74
2024-03-28T04:25:26.521Z,52.74
2024-03-28T04:26:26.516Z,52.64
2024-03-28T04:27:26.513Z,52.74
2024-03-28T04:28:26.518Z,52.74
2024-03-28T04:29:26.549Z,52.74
2024-03-28T04:30:26.652Z,52.74
2024-03-28T04:31:26.574Z,52.74
2024-03-28T04:32:26.605Z,52.64
2024-03-28T04:33:26.577Z,52.64
2024-03-28T04:34:26.586Z,52.74
2024-03-28T04:35:26.597Z,52.74
2024-03-28T04:36:26.617Z,52.74
2024-03-28T04:37:26.724Z,52.77
2024-03-28T04:38:26.603Z,52.77
2024-03-28T04:39:26.644Z,52.74
2024-03-28T04:40:26.628Z,52.74
2024-03-28T04:41:26.636Z,52.87
2024-03-28T04:42:26.673Z,52.74
2024-03-28T04:43:26.652Z,52.74
2024-03-28T04:47:26.724Z,52.74
2024-03-28T04:48:26.738Z,52.64
2024-03-28T04:49:26.783Z,52.64
2024-03-28T04:50:26.785Z,52.64
2024-03-28T04:51:26.771Z,52.77
2024-03-28T04:52:26.825Z,52.87
2024-03-28T04:53:26.820Z,52.87
2024-03-28T04:54:26.823Z,52.74
2024-03-28T04:55:27.958Z,52.77
2024-03-28T04:56:26.874Z,52.77
2024-03-28T04:57:26.865Z,52.87
2024-03-28T04:58:26.873Z,52.97
2024-03-28T04:59:26.864Z,52.97
2024-03-28T05:00:26.911Z,52.97
2024-03-28T05:01:26.884Z,52.97
2024-03-28T05:02:26.880Z,52.87
2024-03-28T05:03:26.932Z,52.97
2024-03-28T05:04:26.900Z,53.07
2024-03-28T05:05:26.907Z,53.07
2024-03-28T05:06:26.911Z,52.97
2024-03-28T05:07:26.962Z,52.97
2024-03-28T05:08:26.970Z,52.97
2024-03-28T05:09:26.990Z,52.97
2024-03-28T05:10:27.043Z,52.97
2024-03-28T05:11:27.014Z,52.97
2024-03-28T05:12:27.022Z,52.97
2024-03-28T05:13:27.125Z,52.97
2024-03-28T05:14:27.093Z,52.87
2024-03-28T05:15:27.142Z,52.87
2024-03-28T05:16:27.107Z,52.97
2024-03-28T05:17:27.109Z,52.97
2024-03-28T05:18:27.074Z,52.97
2024-03-28T05:19:27.094Z,53.17
2024-03-28T05:20:27.110Z,53.47
2024-03-28T05:21:27.155Z,53.27
2024-03-28T05:22:27.190Z,53.38
2024-03-28T05:23:27.106Z,53.38
2024-03-28T05:24:27.119Z,53.67
2024-03-28T05:25:27.156Z,53.67
2024-03-28T05:26:27.196Z,53.88
2024-03-28T05:27:28.770Z,53.78
2024-03-28T05:28:27.237Z,53.47
2024-03-28T05:29:27.205Z,53.27
2024-03-28T05:30:27.271Z,53.14
2024-03-28T05:31:27.250Z,53.27
2024-03-28T05:32:27.282Z,53.27
2024-03-28T05:33:27.300Z,53.27
2024-03-28T05:34:27.375Z,53.25
2024-03-28T05:35:27.315Z,53.05
2024-03-28T05:36:27.326Z,53.14
2024-03-28T05:37:27.461Z,53.05
2024-03-28T05:38:27.387Z,53.05
2024-03-28T05:39:27.361Z,52.94
2024-03-28T05:40:27.411Z,52.94
2024-03-28T05:41:27.374Z,52.94
2024-03-28T05:42:27.371Z,52.94
2024-03-28T05:43:27.391Z,52.94
2024-03-28T05:44:27.395Z,52.94
2024-03-28T05:45:27.401Z,52.84
2024-03-28T05:46:27.426Z,52.84
2024-03-28T05:47:27.397Z,52.84
2024-03-28T05:48:27.411Z,52.84
2024-03-28T05:49:27.429Z,52.84
2024-03-28T05:50:27.425Z,52.74
2024-03-28T05:51:27.441Z,52.84
2024-03-28T05:52:27.516Z,52.84
2024-03-28T05:54:27.503Z,52.84
2024-03-28T05:55:28.332Z,52.94
2024-03-28T05:56:27.524Z,52.94
2024-03-28T05:57:27.536Z,52.84
2024-03-28T05:58:27.562Z,52.84
2024-03-28T05:59:27.603Z,52.84
2024-03-28T06:00:27.706Z,52.74
2024-03-28T06:01:27.612Z,52.74
2024-03-28T06:02:27.633Z,52.74
2024-03-28T06:03:28.594Z,52.74
2024-03-28T06:04:27.686Z,52.74
2024-03-28T06:05:27.677Z,52.74
2024-03-28T06:06:27.645Z,52.74
2024-03-28T06:07:27.675Z,52.64
2024-03-28T06:08:27.634Z,52.74
2024-03-28T06:09:27.666Z,52.74
2024-03-28T06:10:27.682Z,52.74
2024-03-28T06:11:27.655Z,52.74
2024-03-28T06:12:27.686Z,52.64
2024-03-28T06:13:27.752Z,52.74
2024-03-28T06:14:27.679Z,52.64
2024-03-28T06:15:27.709Z,52.74
2024-03-28T06:16:27.716Z,52.74
2024-03-28T06:17:27.723Z,52.64
2024-03-28T06:18:27.768Z,52.64
2024-03-28T06:19:27.784Z,52.64
2024-03-28T06:20:27.808Z,52.54
2024-03-28T06:21:27.797Z,52.44
2024-03-28T06:22:27.834Z,52.54
2024-03-28T06:23:27.826Z,52.64
2024-03-28T06:24:27.840Z,52.54
2024-03-28T06:25:27.904Z,52.54
2024-03-28T06:26:27.924Z,52.64
2024-03-28T06:27:27.894Z,52.64
2024-03-28T06:28:27.958Z,52.54
2024-03-28T06:29:27.922Z,52.54
2024-03-28T06:30:27.913Z,52.42
2024-03-28T06:31:27.926Z,52.44
2024-03-28T06:32:27.926Z,52.44
2024-03-28T06:33:27.922Z,52.54
2024-03-28T06:34:27.950Z,52.44
2024-03-28T06:35:27.944Z,52.54
2024-03-28T06:36:27.952Z,52.54
2024-03-28T06:37:27.947Z,52.44
2024-03-28T06:38:27.966Z,52.44
2024-03-28T06:39:27.960Z,52.31
2024-03-28T06:40:27.996Z,52.42
2024-03-28T06:41:28.033Z,52.42
2024-03-28T06:42:27.998Z,52.34
2024-03-28T06:43:28.049Z,52.44
2024-03-28T06:44:28.070Z,52.44
2024-03-28T06:45:28.151Z,52.42
2024-03-28T06:46:28.217Z,52.31
2024-03-28T06:47:28.133Z,52.42
2024-03-28T06:48:28.136Z,52.31
2024-03-28T06:49:28.238Z,52.31
2024-03-28T06:50:28.265Z,52.31
2024-03-28T06:51:28.186Z,52.22
2024-03-28T06:52:28.168Z,52.34
2024-03-28T06:53:28.255Z,52.44
2024-03-28T06:54:28.178Z,52.31
2024-03-28T06:55:28.210Z,52.31
2024-03-28T06:56:28.191Z,52.31
2024-03-28T06:57:28.197Z,52.31
2024-03-28T06:58:28.260Z,52.31
2024-03-28T06:59:28.193Z,52.31
2024-03-28T07:00:28.181Z,52.22
2024-03-28T07:01:28.209Z,52.31
2024-03-28T07:02:28.222Z,52.44
2024-03-28T07:03:28.193Z,52.44
2024-03-28T07:04:28.262Z,52.54
2024-03-28T07:05:28.209Z,52.54
2024-03-28T07:06:28.244Z,52.54
2024-03-28T07:07:28.304Z,52.54
2024-03-28T07:08:28.260Z,52.54
2024-03-28T07:09:28.282Z,52.54
2024-03-28T07:10:28.301Z,52.44
2024-03-28T07:11:28.268Z,52.54
2024-03-28T07:12:28.308Z,52.34
2024-03-28T07:13:28.313Z,52.44
2024-03-28T07:14:28.321Z,52.44
2024-03-28T07:15:28.297Z,52.54
2024-03-28T07:16:28.347Z,52.54
2024-03-28T07:17:28.334Z,52.54
2024-03-28T07:18:28.347Z,52.54
2024-03-28T07:19:28.343Z,52.74
2024-03-28T07:20:28.349Z,52.64
2024-03-28T07:21:28.354Z,52.51
2024-03-28T07:22:28.400Z,52.51
2024-03-28T07:23:28.430Z,52.42
2024-03-28T07:24:28.418Z,52.11
2024-03-28T07:25:28.475Z,52.01
2024-03-28T07:26:28.458Z,52.01
2024-03-28T07:27:28.420Z,52.19
2024-03-28T07:28:28.449Z,51.59
2024-03-28T07:29:28.434Z,51.99
2024-03-28T07:30:28.430Z,51.68
2024-03-28T07:31:28.457Z,51.89
2024-03-28T07:32:28.469Z,51.99
2024-03-28T07:33:28.444Z,51.99
2024-03-28T07:34:28.475Z,51.56
2024-03-28T07:35:29.183Z,51.16
2024-03-28T07:36:28.451Z,51.06
2024-03-28T07:37:28.511Z,51.79
2024-03-28T07:38:28.474Z,52.19
2024-03-28T07:39:28.475Z,52.09
2024-03-28T07:40:28.526Z,51.86
2024-03-28T07:41:28.550Z,51.66
2024-03-28T07:42:28.539Z,51.46
2024-03-28T07:43:28.599Z,51.26
2024-03-28T07:44:28.534Z,51.26
2024-03-28T07:45:28.574Z,51.06
2024-03-28T07:46:28.641Z,51.06
2024-03-28T07:47:28.663Z,51.06
2024-03-28T07:48:28.591Z,50.86
2024-03-28T07:49:28.665Z,50.86
2024-03-28T07:50:28.623Z,50.53
2024-03-28T07:51:28.616Z,50.43
2024-03-28T07:52:28.660Z,50.13
2024-03-28T07:53:28.624Z,49.83
2024-03-28T07:54:28.674Z,49.73
2024-03-28T07:55:28.663Z,49.73
2024-03-28T07:56:28.676Z,49.40
2024-03-28T07:57:28.686Z,49.40
2024-03-28T07:58:28.743Z,49.40
2024-03-28T07:59:28.716Z,49.30
2024-03-28T08:00:28.731Z,49.33
2024-03-28T08:01:29.343Z,49.10
2024-03-28T08:02:28.745Z,48.90
2024-03-28T08:03:28.744Z,49.21
2024-03-28T08:04:28.813Z,48.90
2024-03-28T08:05:28.789Z,48.70
2024-03-28T08:06:28.814Z,48.90
2024-03-28T08:07:28.848Z,48.63
2024-03-28T08:08:28.867Z,48.83
2024-03-28T08:09:28.906Z,48.93
2024-03-28T08:10:28.929Z,49.22
2024-03-28T08:11:28.893Z,49.13
2024-03-28T08:12:28.926Z,49.21
2024-03-28T08:13:28.991Z,49.01
2024-03-28T08:14:28.974Z,49.21
2024-03-28T08:15:28.949Z,49.22
2024-03-28T08:16:29.000Z,49.22
2024-03-28T08:18:29.029Z,49.22
2024-03-28T08:19:29.117Z,49.22
2024-03-28T08:20:29.069Z,49.22
2024-03-28T08:21:29.040Z,49.22
2024-03-28T08:22:29.060Z,49.13
2024-03-28T08:23:29.050Z,49.13
2024-03-28T08:24:29.047Z,49.33
2024-03-28T08:25:29.078Z,49.22
2024-03-28T08:26:29.082Z,48.80
2024-03-28T08:27:29.068Z,48.10
2024-03-28T08:28:29.084Z,48.40
2024-03-28T08:29:29.034Z,48.60
2024-03-28T08:30:29.089Z,48.50
2024-03-28T08:31:29.129Z,48.30
2024-03-28T08:32:29.135Z,48.40
2024-03-28T08:33:29.107Z,48.20
2024-03-28T08:34:29.113Z,48.40
2024-03-28T08:35:29.154Z,48.30
2024-03-28T08:36:29.178Z,48.80
2024-03-28T08:37:29.212Z,48.30
2024-03-28T08:38:29.271Z,48.10
2024-03-28T08:39:29.252Z,48.40
2024-03-28T08:40:29.295Z,48.70
2024-03-28T08:41:29.295Z,48.70
2024-03-28T08:42:29.332Z,48.70
2024-03-28T08:43:29.340Z,48.83
2024-03-28T08:44:29.336Z,48.90
2024-03-28T08:45:29.395Z,48.70
2024-03-28T08:46:29.428Z,48.40
2024-03-28T08:47:29.416Z,48.30
2024-03-28T08:48:29.423Z,48.40
2024-03-28T08:49:29.422Z,48.20
2024-03-28T08:50:29.401Z,48.30
2024-03-28T08:51:29.438Z,48.20
2024-03-28T08:52:29.451Z,48.40
2024-03-28T08:53:29.451Z,48.10
2024-03-28T08:54:29.457Z,48.00
2024-03-28T08:55:29.475Z,48.30
2024-03-28T08:56:31.350Z,48.30
2024-03-28T08:57:29.487Z,48.30
2024-03-28T08:58:29.513Z,47.90
2024-03-28T08:59:29.493Z,48.30
2024-03-28T09:00:29.535Z,48.40
2024-03-28T09:01:29.514Z,48.40
2024-03-28T09:02:29.558Z,48.30
2024-03-28T09:03:29.549Z,48.30
2024-03-28T09:04:29.599Z,48.40
2024-03-28T09:05:29.609Z,48.30
2024-03-28T09:06:29.682Z,48.20
2024-03-28T09:07:29.598Z,48.00
2024-03-28T09:08:29.599Z,48.10
2024-03-28T09:09:29.587Z,47.90
2024-03-28T09:10:29.623Z,47.90
2024-03-28T09:11:29.617Z,47.80
2024-03-28T09:12:29.698Z,47.80
2024-03-28T09:13:29.687Z,47.90
2024-03-28T09:14:29.718Z,47.90
2024-03-28T09:15:29.732Z,47.90
2024-03-28T09:16:29.775Z,47.90
2024-03-28T09:17:29.734Z,47.90
2024-03-28T09:18:29.734Z,47.90
2024-03-28T09:19:29.752Z,48.00
2024-03-28T09:20:29.773Z,48.00
2024-03-28T09:21:29.754Z,48.00
2024-03-28T09:22:29.771Z,48.10
2024-03-28T09:23:29.762Z,48.10
2024-03-28T09:24:29.736Z,48.10
2024-03-28T09:25:29.737Z,48.10
2024-03-28T09:26:29.753Z,48.00
2024-03-28T09:27:29.729Z,48.00
2024-03-28T09:28:29.740Z,47.97
2024-03-28T09:29:29.746Z,48.28
2024-03-28T09:30:29.770Z,48.30
2024-03-28T09:31:29.777Z,48.58
2024-03-28T09:32:29.804Z,48.80
2024-03-28T09:33:29.798Z,48.90
2024-03-28T09:34:29.833Z,49.01
2024-03-28T09:35:29.814Z,49.10
2024-03-28T09:36:29.854Z,49.10
2024-03-28T09:37:29.899Z,49.08
2024-03-28T09:38:29.874Z,49.18
2024-03-28T09:39:29.894Z,49.28
2024-03-28T09:40:29.928Z,49.28
2024-03-28T09:41:29.917Z,49.28
2024-03-28T09:42:29.941Z,49.58
2024-03-28T09:43:29.919Z,49.58
2024-03-28T09:44:29.936Z,49.48
2024-03-28T09:45:29.963Z,49.48
2024-03-28T09:46:29.969Z,49.26
2024-03-28T09:47:29.988Z,49.26
2024-03-28T09:48:29.955Z,49.38
2024-03-28T09:49:30.060Z,49.48
2024-03-28T09:50:29.978Z,49.58
2024-03-28T09:51:29.999Z,49.38
2024-03-28T09:52:30.005Z,49.48
2024-03-28T09:53:30.012Z,49.46
2024-03-28T09:54:30.027Z,49.36
2024-03-28T09:55:30.061Z,49.36
2024-03-28T09:56:30.039Z,49.36
2024-03-28T09:58:30.053Z,49.26
2024-03-28T09:59:30.069Z,49.16
2024-03-28T10:01:30.078Z,49.26
2024-03-28T10:02:30.154Z,49.36
2024-03-28T10:03:30.126Z,49.36
2024-03-28T10:04:30.162Z,49.36
2024-03-28T10:05:30.138Z,49.04
2024-03-28T10:06:30.178Z,49.04
2024-03-28T10:07:30.172Z,48.83
2024-03-28T10:08:30.212Z,48.83
2024-03-28T10:09:30.188Z,48.73
2024-03-28T10:10:30.226Z,48.73
2024-03-28T10:11:30.222Z,48.73
2024-03-28T10:12:30.239Z,48.63
2024-03-28T10:13:30.265Z,48.63
2024-03-28T10:14:30.273Z,48.73
2024-03-28T10:15:30.332Z,48.93
2024-03-28T10:16:30.378Z,48.93
2024-03-28T10:17:30.361Z,49.04
2024-03-28T10:18:30.362Z,48.93
2024-03-28T10:19:30.369Z,49.13
2024-03-28T10:20:30.366Z,49.04
2024-03-28T10:21:30.372Z,48.81
2024-03-28T10:22:30.387Z,48.71
2024-03-28T10:23:30.389Z,48.81
2024-03-28T10:24:30.383Z,48.71
2024-03-28T10:25:30.425Z,48.51
2024-03-28T10:26:30.377Z,48.71
2024-03-28T10:27:30.413Z,48.69
2024-03-28T10:28:30.433Z,48.49
2024-03-28T10:29:30.431Z,48.58
2024-03-28T10:30:30.405Z,49.08
2024-03-28T10:31:30.459Z,48.99
2024-03-28T10:32:30.449Z,48.99
2024-03-28T10:34:30.499Z,48.99
2024-03-28T10:35:30.493Z,48.89
2024-03-28T10:36:30.490Z,48.89
2024-03-28T10:37:36.794Z,49.19
2024-03-28T10:38:30.563Z,49.49
2024-03-28T10:40:30.544Z,49.39
2024-03-28T10:41:30.574Z,49.51
2024-03-28T10:42:30.617Z,49.61
2024-03-28T10:43:30.621Z,49.61
2024-03-28T10:44:30.635Z,49.51
2024-03-28T10:45:30.607Z,49.31
2024-03-28T10:46:30.597Z,49.08
2024-03-28T10:47:30.698Z,48.69
2024-03-28T10:48:30.610Z,48.38
2024-03-28T10:49:30.665Z,48.49
2024-03-28T10:50:30.675Z,48.49
2024-03-28T10:51:30.687Z,48.38
2024-03-28T10:52:30.697Z,48.26
2024-03-28T10:53:30.667Z,48.16
2024-03-28T10:54:30.703Z,48.36
2024-03-28T10:55:32.739Z,48.26
2024-03-28T10:56:30.685Z,48.38
2024-03-28T10:57:30.736Z,48.49
2024-03-28T10:58:30.763Z,48.28
2024-03-28T10:59:30.779Z,48.16
2024-03-28T11:00:30.774Z,48.16
2024-03-28T11:01:32.876Z,48.07
2024-03-28T11:02:30.795Z,47.86
2024-03-28T11:03:30.790Z,47.96
2024-03-28T11:04:31.422Z,47.76
2024-03-28T11:05:30.802Z,47.64
2024-03-28T11:06:30.839Z,47.64
2024-03-28T11:07:30.854Z,47.44
2024-03-28T11:08:30.893Z,47.44
2024-03-28T11:09:30.911Z,47.24
2024-03-28T11:10:30.949Z,47.14
2024-03-28T11:11:30.959Z,47.14
2024-03-28T11:12:30.950Z,47.24
2024-03-28T11:13:30.966Z,47.24
2024-03-28T11:14:30.982Z,47.34
2024-03-28T11:15:30.981Z,47.14
2024-03-28T11:16:31.008Z,47.04
2024-03-28T11:17:31.026Z,46.94
2024-03-28T11:18:31.004Z,46.94
2024-03-28T11:19:33.538Z,46.84
2024-03-28T11:20:31.047Z,46.84
2024-03-28T11:21:31.026Z,46.72
2024-03-28T11:22:31.079Z,46.62
2024-03-28T11:23:31.005Z,46.51
2024-03-28T11:24:31.054Z,46.62
2024-03-28T11:25:31.080Z,46.72
2024-03-28T11:26:31.093Z,46.42
2024-03-28T11:27:31.057Z,46.42
2024-03-28T11:28:31.081Z,46.30
2024-03-28T11:29:31.080Z,46.30
2024-03-28T11:30:31.116Z,46.00
2024-03-28T11:31:31.175Z,46.09
2024-03-28T11:32:31.141Z,46.09
2024-03-28T11:33:31.166Z,46.09
2024-03-28T11:34:31.254Z,46.09
2024-03-28T11:35:31.187Z,46.09
2024-03-28T11:36:31.225Z,46.09
2024-03-28T11:37:31.213Z,46.00
2024-03-28T11:38:31.222Z,46.00
2024-03-28T11:39:31.238Z,46.00
2024-03-28T11:40:31.274Z,45.89
2024-03-28T11:41:31.282Z,45.79
2024-03-28T11:43:31.364Z,45.89
2024-03-28T11:44:31.294Z,45.79
2024-03-28T11:45:31.903Z,45.89
2024-03-28T11:46:31.305Z,46.01
2024-03-28T11:47:33.077Z,46.42
2024-03-28T11:48:31.356Z,46.31
2024-03-28T11:49:31.478Z,46.30
2024-03-28T11:50:31.674Z,46.19
2024-03-28T11:51:31.362Z,46.09
2024-03-28T11:52:31.383Z,46.19
2024-03-28T11:53:31.363Z,46.22
2024-03-28T11:54:31.396Z,46.22
2024-03-28T11:55:31.373Z,46.31
2024-03-28T11:56:32.321Z,46.30
2024-03-28T11:57:31.474Z,46.30
2024-03-28T11:58:31.481Z,46.30
2024-03-28T11:59:31.462Z,46.30
2024-03-28T12:00:31.489Z,46.39
2024-03-28T12:01:31.474Z,46.09
2024-03-28T12:02:31.485Z,45.97
2024-03-28T12:03:31.519Z,45.87
2024-03-28T12:04:31.500Z,45.97
2024-03-28T12:05:31.524Z,45.87
2024-03-28T12:06:31.536Z,45.77
2024-03-28T12:07:31.577Z,46.09
2024-03-28T12:08:38.056Z,46.42
2024-03-28T12:09:31.633Z,46.81
2024-03-28T12:10:31.668Z,46.94
2024-03-28T12:11:31.677Z,47.04
2024-03-28T12:12:31.711Z,47.24
2024-03-28T12:13:31.760Z,47.34
2024-03-28T12:14:31.732Z,47.14
2024-03-28T12:15:31.746Z,46.94
2024-03-28T12:16:31.782Z,46.72
2024-03-28T12:17:31.806Z,46.51
2024-03-28T12:18:31.820Z,46.51
2024-03-28T12:19:31.835Z,46.62
2024-03-28T12:20:31.815Z,46.51
2024-03-28T12:21:31.835Z,46.62
2024-03-28T12:22:31.849Z,46.94
2024-03-28T12:23:31.891Z,47.24
2024-03-28T12:24:31.896Z,47.56
2024-03-28T12:25:31.947Z,47.76
2024-03-28T12:26:32.852Z,47.86
2024-03-28T12:27:32.478Z,47.99
2024-03-28T12:28:31.907Z,48.08
2024-03-28T12:29:31.931Z,48.19
2024-03-28T12:30:31.990Z,48.28
2024-03-28T12:31:31.994Z,48.28
2024-03-28T12:32:31.987Z,48.28
2024-03-28T12:33:32.006Z,48.28
2024-03-28T12:34:32.032Z,48.41
2024-03-28T12:35:32.052Z,48.51
2024-03-28T12:36:33.677Z,48.51
2024-03-28T12:37:32.062Z,48.51
2024-03-28T12:38:32.097Z,48.61
2024-03-28T12:39:32.101Z,48.38
2024-03-28T12:40:32.088Z,48.41
2024-03-28T12:41:32.108Z,48.51
2024-03-28T12:42:32.141Z,48.71
2024-03-28T12:43:32.180Z,48.81
2024-03-28T12:44:32.178Z,48.71
2024-03-28T12:45:32.197Z,48.71
2024-03-28T12:46:32.203Z,48.81
2024-03-28T12:47:32.215Z,48.93
2024-03-28T12:48:32.209Z,48.93
2024-03-28T12:49:32.216Z,49.04
2024-03-28T12:50:32.227Z,49.04
2024-03-28T12:51:32.230Z,49.04
2024-03-28T12:52:32.229Z,49.04
2024-03-28T12:53:32.243Z,49.13
2024-03-28T12:54:32.273Z,49.04
2024-03-28T12:55:32.258Z,49.01
2024-03-28T12:56:32.296Z,48.91
2024-03-28T12:57:32.300Z,48.81
2024-03-28T12:58:32.327Z,48.71
2024-03-28T12:59:32.318Z,48.61
2024-03-28T13:00:32.352Z,48.38
2024-03-28T13:01:32.403Z,48.51
2024-03-28T13:02:32.410Z,48.71
2024-03-28T13:03:32.386Z,48.81
2024-03-28T13:04:32.433Z,48.91
2024-03-28T13:05:32.423Z,49.11
2024-03-28T13:06:32.423Z,48.91
2024-03-28T13:07:32.408Z,48.81
2024-03-28T13:08:32.439Z,48.71
2024-03-28T13:09:32.434Z,48.71
2024-03-28T13:10:32.449Z,48.71
2024-03-28T13:11:32.434Z,48.58